Brighton, MI

5:22 AM EST on December 21, 2014 (GMT -0500)
Main Street | Change Station
CLOSE
Current Station
Personal Weather Station
Location: Brighton, MI
Elevation: 939 ft
Nearby Weather Stations

Elev 939 ft 42.53 °N, 83.80 °W | Updated 3 seconds ago

Overcast
Overcast
25.7 °F
Feels Like 26 °F
N
0.0
Wind Variable Wind from North
Gusts 0.0 mph

Today
High -- | Low -- °F
--% Chance of Precip.
Yesterday
High -- | Low -- °F
Precip. -- in
8:01 AM 5:05 PM
Waning Crescent, 1% visible
Pressure 30.26 in
Visibility 7.0 miles
Clouds Overcast 3100 ft
Windchill 26 °F
Dew Point 23 °F
Humidity 91%
Rainfall 0.00 in
Snow Depth Not available.
UV 0.0 out of 12
Pollen .10 out of 12
Air Quality Not available.
Flu Activity Not available.
METAR KOZW 211014Z AUTO 18003KT 7SM OVC031 M03/M04 A3026 RMK AO2 T10301044

More Conditions Fewer Conditions

Pressure 30.26 in
Visibility 7.0 miles
Clouds Overcast 3100 ft
Windchill 26 °F
Dew Point 23 °F
Humidity 91%
Rainfall 0.00 in
Snow Depth Not available.
UV 0.0 out of 12
Pollen .10 out of 12
Air Quality Not available.
Flu Activity Not available.
METAR KOZW 211014Z AUTO 18003KT 7SM OVC031 M03/M04 A3026 RMK AO2 T10301044

More Conditions Fewer Conditions

10-Day Weather Forecast

Almanac

Astronomy

Dec. 21, 2014 Rise Set
Actual Time
Civil Twilight
Nautical Twilight
Astronomical Twilight
Moon
Length of Visible Light
Length of Day
Tomorrow will be .
, % of the Moon is Illuminated

Today's Extremes

State Highs State Lows

Community

WunderPhotos

Upload Photos

1,779,364 photos uploaded!

WunderBlogs® & News

Nearby

Air Quality

  Air Quality AQ Index Pollutant
Not available.

Snow Depth

Station Depth Elevation

Earthquake Activity

City Distance Mag. Time & Date
Minimum magnitude displayed is 2.5.

Coastal Water Temperatures

Place Temperature

Nearby Weather Stations